createdAt,value
2023-05-10T00:00:00.374Z,61.9
2023-05-10T00:02:00.244Z,61
2023-05-10T00:04:01.345Z,61.2
2023-05-10T00:06:04.467Z,61.4
2023-05-10T00:08:01.390Z,61.3
2023-05-10T00:10:00.064Z,61.2
2023-05-10T00:12:01.912Z,61.2
2023-05-10T00:14:01.529Z,60.7
2023-05-10T00:16:00.090Z,61.1
2023-05-10T00:18:04.648Z,60.9
2023-05-10T00:20:01.210Z,61
2023-05-10T00:22:00.050Z,61.4
2023-05-10T00:24:04.568Z,61
2023-05-10T00:26:12.106Z,61.3
2023-05-10T00:27:42.274Z,61.3
2023-05-10T00:28:02.586Z,61.8
2023-05-10T00:30:00.312Z,62.6
2023-05-10T00:32:00.355Z,62
2023-05-10T00:34:00.065Z,61.6
2023-05-10T00:36:00.112Z,62.1
2023-05-10T00:38:01.469Z,62.4
2023-05-10T00:40:00.075Z,62.3
2023-05-10T00:41:59.988Z,62.1
2023-05-10T00:44:00.196Z,62
2023-05-10T00:46:00.014Z,62.2
2023-05-10T00:48:00.112Z,62
2023-05-10T00:50:00.054Z,60.7
2023-05-10T00:52:00.144Z,60.7
2023-05-10T00:54:00.056Z,61.3
2023-05-10T00:56:00.022Z,61.5
2023-05-10T00:58:00.174Z,61.7
2023-05-10T01:00:09.915Z,60.5
2023-05-10T01:02:10.542Z,61.2
2023-05-10T01:04:00.015Z,61.3
2023-05-10T01:05:59.982Z,61.5
2023-05-10T01:07:59.959Z,61.5
2023-05-10T01:10:00.025Z,61.2
2023-05-10T01:12:00.038Z,60.9
2023-05-10T01:13:59.964Z,61.1
2023-05-10T01:16:01.359Z,61.5
2023-05-10T01:18:00.103Z,61.9
2023-05-10T01:20:00.028Z,61.8
2023-05-10T01:22:00.067Z,61.7
2023-05-10T01:24:00.121Z,61.3
2023-05-10T01:26:22.740Z,61.3
2023-05-10T01:28:00.175Z,61.2
2023-05-10T01:30:13.901Z,61.6
2023-05-10T01:32:00.260Z,61
2023-05-10T01:34:04.498Z,61.2
2023-05-10T01:35:58.427Z,61.2
2023-05-10T01:47:40.434Z,62.8
2023-05-10T01:49:08.953Z,62.5
2023-05-10T01:51:08.869Z,63.6
2023-05-10T01:53:08.926Z,63.1
2023-05-10T01:55:08.851Z,63.5
2023-05-10T01:57:08.858Z,63.6
2023-05-10T01:59:08.978Z,62.9
2023-05-10T02:01:10.265Z,61.9
2023-05-10T02:03:09.156Z,61.1
2023-05-10T02:05:08.842Z,62.1
2023-05-10T02:07:08.998Z,61.9
2023-05-10T02:09:10.143Z,61.6
2023-05-10T02:11:08.954Z,60.8
2023-05-10T02:13:09.047Z,61.3
2023-05-10T02:15:09.836Z,61.3
2023-05-10T02:17:08.781Z,61.3
2023-05-10T02:19:08.854Z,59.7
2023-05-10T02:21:08.860Z,58.7
2023-05-10T02:23:08.790Z,59.8
2023-05-10T02:25:08.787Z,59.9
2023-05-10T02:27:08.768Z,59.9
2023-05-10T02:29:08.875Z,60.5
2023-05-10T02:31:08.783Z,60.3
2023-05-10T02:33:08.805Z,60.5
2023-05-10T02:35:10.088Z,60.3
2023-05-10T02:37:08.947Z,60.1
2023-05-10T02:39:08.970Z,60.2
2023-05-10T02:41:09.262Z,60.2
2023-05-10T02:43:08.815Z,60.5
2023-05-10T02:45:08.774Z,60.6
2023-05-10T02:58:05.062Z,62.1
2023-05-10T02:59:08.735Z,62.6
2023-05-10T03:01:08.791Z,63
2023-05-10T03:03:08.778Z,62.8
2023-05-10T03:05:08.758Z,62.1
2023-05-10T03:07:08.837Z,63.6
2023-05-10T03:09:08.818Z,63.3
2023-05-10T03:11:08.881Z,64.2
2023-05-10T03:13:09.109Z,63.2
2023-05-10T03:15:08.867Z,63.3
2023-05-10T03:17:08.748Z,63.3
2023-05-10T03:19:08.761Z,63.3
2023-05-10T03:21:08.717Z,63.4
2023-05-10T03:23:08.739Z,63.1
2023-05-10T03:25:08.721Z,62.9
2023-05-10T03:27:08.719Z,63.8
2023-05-10T03:29:08.731Z,65
2023-05-10T03:31:08.746Z,65.2
2023-05-10T03:33:08.814Z,64.4
2023-05-10T03:35:08.725Z,64.1
2023-05-10T03:37:08.729Z,64.2
2023-05-10T03:39:08.698Z,64.5
2023-05-10T03:41:08.734Z,64.5
2023-05-10T03:43:08.719Z,64.5
2023-05-10T03:44:34.026Z,64.5
2023-05-10T03:45:10.201Z,64.3
2023-05-10T03:47:08.983Z,64.5
2023-05-10T03:49:08.723Z,65.3
2023-05-10T03:51:08.690Z,64.9
2023-05-10T03:53:08.702Z,64.7
2023-05-10T03:55:08.695Z,65.1
2023-05-10T03:57:08.659Z,66
2023-05-10T03:59:08.730Z,65.7
2023-05-10T04:01:08.681Z,65.7
2023-05-10T04:03:08.721Z,66.6
2023-05-10T04:05:08.710Z,65.9
2023-05-10T04:07:08.699Z,66
2023-05-10T04:09:08.683Z,66.7
2023-05-10T04:11:08.709Z,66
2023-05-10T04:13:08.787Z,66.8
2023-05-10T04:15:09.848Z,66.9
2023-05-10T04:17:08.920Z,65.8
2023-05-10T04:19:08.643Z,65.8
2023-05-10T04:21:08.671Z,67.4
2023-05-10T04:23:11.323Z,66.6
2023-05-10T04:25:08.822Z,66.7
2023-05-10T04:27:08.755Z,66.9
2023-05-10T04:29:08.666Z,68.6
2023-05-10T04:31:08.717Z,67.8
2023-05-10T04:33:08.693Z,68
2023-05-10T04:35:08.684Z,66.9
2023-05-10T04:37:08.725Z,67.2
2023-05-10T04:39:08.649Z,67
2023-05-10T04:41:08.620Z,66.5
2023-05-10T04:43:08.645Z,67.4
2023-05-10T04:45:09.780Z,66.4
2023-05-10T04:47:09.927Z,66.5
2023-05-10T04:49:34.955Z,66.9
2023-05-10T04:57:38.659Z,66.4
2023-05-10T04:58:59.420Z,66.8
2023-05-10T05:00:59.399Z,66.6
2023-05-10T05:02:59.491Z,66.3
2023-05-10T05:04:59.434Z,66.2
2023-05-10T05:06:59.421Z,66
2023-05-10T05:08:59.431Z,66.3
2023-05-10T05:10:59.388Z,66.5
2023-05-10T05:12:59.463Z,67.3
2023-05-10T05:14:59.402Z,67.2
2023-05-10T05:16:59.374Z,66.7
2023-05-10T05:18:59.394Z,67.5
2023-05-10T05:20:59.493Z,66.6
2023-05-10T05:22:59.390Z,67.4
2023-05-10T05:24:59.418Z,67.6
2023-05-10T05:26:59.390Z,68.2
2023-05-10T05:28:59.377Z,68.9
2023-05-10T05:30:59.404Z,68.1
2023-05-10T05:32:59.424Z,68.8
2023-05-10T05:34:59.365Z,68.4
2023-05-10T05:36:59.411Z,68.9
2023-05-10T05:38:59.550Z,68.5
2023-05-10T05:40:59.382Z,68.8
2023-05-10T05:42:59.355Z,68.9
2023-05-10T05:44:59.363Z,68.8
2023-05-10T05:46:59.443Z,69.2
2023-05-10T05:48:59.340Z,69.6
2023-05-10T05:50:59.596Z,69.8
2023-05-10T05:52:59.404Z,69.2
2023-05-10T05:54:59.325Z,69.5
2023-05-10T05:57:01.151Z,70.1
2023-05-10T05:58:59.372Z,70.1
2023-05-10T06:00:59.409Z,69.2
2023-05-10T06:02:59.355Z,68.6
2023-05-10T06:04:59.440Z,68.4
2023-05-10T06:06:59.342Z,69.9
2023-05-10T06:09:01.873Z,69.7
2023-05-10T06:10:59.374Z,70.6
2023-05-10T06:12:59.412Z,69.3
2023-05-10T06:14:59.311Z,69.1
2023-05-10T06:16:59.586Z,71.3
2023-05-10T06:18:59.302Z,71.9
2023-05-10T06:20:59.319Z,72.4
2023-05-10T06:22:59.305Z,72
2023-05-10T06:24:59.317Z,71.4
2023-05-10T06:26:59.270Z,70.5
2023-05-10T06:28:59.290Z,70
2023-05-10T06:31:00.759Z,70.9
2023-05-10T06:32:59.380Z,71.3
2023-05-10T06:34:59.270Z,72.3
2023-05-10T06:36:59.307Z,73
2023-05-10T06:38:59.328Z,71
2023-05-10T06:40:59.441Z,70.5
2023-05-10T06:42:59.302Z,70.9
2023-05-10T06:44:59.265Z,70.1
2023-05-10T06:46:59.255Z,70
2023-05-10T06:48:59.301Z,69.8
2023-05-10T06:50:59.298Z,69.9
2023-05-10T06:52:59.266Z,69.8
2023-05-10T06:54:59.296Z,69.8
2023-05-10T06:57:00.077Z,69.8
2023-05-10T06:58:59.351Z,71.9
2023-05-10T07:00:59.269Z,72.3
2023-05-10T07:02:59.457Z,70.8
2023-05-10T07:05:00.964Z,70.3
2023-05-10T07:07:01.770Z,70.2
2023-05-10T07:08:59.249Z,70.3
2023-05-10T07:10:59.278Z,70.1
2023-05-10T07:13:00.705Z,70
2023-05-10T07:14:59.349Z,70
2023-05-10T07:16:59.261Z,72.3
2023-05-10T07:18:59.275Z,71.9
2023-05-10T07:20:59.326Z,71.8
2023-05-10T07:22:59.241Z,74.1
2023-05-10T07:24:59.227Z,74.1
2023-05-10T07:26:59.202Z,72.9
2023-05-10T07:28:59.296Z,71.9
2023-05-10T07:30:59.283Z,71.4
2023-05-10T07:32:59.235Z,71.2
2023-05-10T07:34:59.246Z,71.1
2023-05-10T07:36:59.284Z,71.2
2023-05-10T07:38:59.299Z,72.3
2023-05-10T07:40:59.235Z,71.5
2023-05-10T07:42:59.207Z,72.1
2023-05-10T07:45:00.346Z,71.1
2023-05-10T07:46:59.254Z,71
2023-05-10T07:49:00.834Z,71.4
2023-05-10T07:50:59.273Z,70.9
2023-05-10T07:52:59.193Z,71
2023-05-10T07:54:59.210Z,70.9
2023-05-10T07:56:59.197Z,70.8
2023-05-10T07:58:59.205Z,71.5
2023-05-10T08:00:59.153Z,71.6
2023-05-10T08:02:59.325Z,72.7
2023-05-10T08:04:59.177Z,73.2
2023-05-10T08:06:59.191Z,72.1
2023-05-10T08:08:59.166Z,72.3
2023-05-10T08:10:59.186Z,72.7
2023-05-10T08:12:59.160Z,71.5
2023-05-10T08:14:59.176Z,72
2023-05-10T08:16:59.251Z,71.7
2023-05-10T08:18:59.370Z,71.5
2023-05-10T08:20:59.180Z,72.3
2023-05-10T08:22:59.204Z,71.8
2023-05-10T08:24:59.176Z,71.8
2023-05-10T08:26:59.146Z,71.8
2023-05-10T08:28:59.129Z,71.6
2023-05-10T08:30:59.265Z,71.6
2023-05-10T08:32:59.291Z,71.4
2023-05-10T08:34:59.154Z,71.5
2023-05-10T08:36:59.123Z,72.1
2023-05-10T08:38:59.139Z,71.6
2023-05-10T08:40:59.217Z,71.5
2023-05-10T08:42:59.125Z,71.5
2023-05-10T08:44:59.186Z,71.7
2023-05-10T08:46:59.173Z,71.8
2023-05-10T08:48:59.151Z,71.8
2023-05-10T08:50:59.138Z,71.8
2023-05-10T08:52:59.207Z,71.8
2023-05-10T08:54:59.097Z,71.9
2023-05-10T08:56:59.102Z,72
2023-05-10T08:58:59.124Z,71.9
2023-05-10T09:00:59.250Z,71.9
2023-05-10T09:02:59.159Z,71.9
2023-05-10T09:04:59.163Z,71.9
2023-05-10T09:06:59.092Z,71.9
2023-05-10T09:08:59.242Z,71.9
2023-05-10T09:10:59.117Z,71.8
2023-05-10T09:12:59.585Z,71.9
2023-05-10T09:14:59.149Z,72
2023-05-10T09:16:59.229Z,72.4
2023-05-10T09:18:59.224Z,72.1
2023-05-10T09:20:59.116Z,72.3
2023-05-10T09:22:59.103Z,72
2023-05-10T09:24:59.193Z,72.1
2023-05-10T09:26:59.280Z,72
2023-05-10T09:28:59.093Z,72.1
2023-05-10T09:30:59.104Z,72.1
2023-05-10T09:32:59.193Z,72
2023-05-10T09:34:59.065Z,72.4
2023-05-10T09:36:59.065Z,72.2
2023-05-10T09:38:59.081Z,72.4
2023-05-10T09:40:59.085Z,72.5
2023-05-10T09:42:59.056Z,72.3
2023-05-10T09:44:59.486Z,72.6
2023-05-10T09:46:59.219Z,72.5
2023-05-10T09:48:59.057Z,72.5
2023-05-10T09:50:59.151Z,72.4
2023-05-10T09:52:59.179Z,73.7
2023-05-10T09:54:59.266Z,75.3
2023-05-10T09:56:59.110Z,77
2023-05-10T09:58:59.087Z,76.5
2023-05-10T10:00:59.219Z,75.2
2023-05-10T10:02:59.208Z,74.5
2023-05-10T10:04:59.443Z,73.9
2023-05-10T10:07:00.224Z,73.7
2023-05-10T10:08:59.161Z,73.6
2023-05-10T10:10:59.081Z,73.4
2023-05-10T10:12:59.069Z,73.3
2023-05-10T10:14:59.426Z,73.2
2023-05-10T10:17:07.979Z,73.2
2023-05-10T10:18:59.323Z,73.2
2023-05-10T10:20:59.054Z,73
2023-05-10T10:22:59.009Z,73
2023-05-10T10:24:59.007Z,73
2023-05-10T10:26:59.038Z,73
2023-05-10T10:28:59.151Z,73
2023-05-10T10:31:00.552Z,72.9
2023-05-10T10:32:59.260Z,72.8
2023-05-10T10:34:59.077Z,72.8
2023-05-10T10:36:59.173Z,72.9
2023-05-10T10:38:59.108Z,72.9
2023-05-10T10:40:59.209Z,72.9
2023-05-10T10:42:59.173Z,72.8
2023-05-10T10:44:59.070Z,72.9
2023-05-10T10:46:59.070Z,72.8
2023-05-10T10:48:58.951Z,72.8
2023-05-10T10:50:59.014Z,73
2023-05-10T10:53:00.352Z,72.8
2023-05-10T10:54:59.021Z,72.8
2023-05-10T10:57:01.528Z,72.8
2023-05-10T10:58:59.012Z,72.8
2023-05-10T11:00:59.090Z,72.9
2023-05-10T11:02:59.123Z,72.8
2023-05-10T11:04:59.049Z,72.8
2023-05-10T11:07:06.658Z,73.5
2023-05-10T11:08:59.022Z,75.2
2023-05-10T11:10:59.222Z,74.2
2023-05-10T11:12:59.038Z,73.6
2023-05-10T11:14:59.277Z,74
2023-05-10T11:16:59.084Z,73.6
2023-05-10T11:19:03.676Z,73.8
2023-05-10T11:20:59.061Z,73.5
2023-05-10T11:22:58.978Z,73.9
2023-05-10T11:25:00.424Z,73.7
2023-05-10T11:27:01.488Z,75.1
2023-05-10T11:29:01.468Z,74.2
2023-05-10T11:31:00.280Z,75.4
2023-05-10T11:32:59.058Z,74.4
2023-05-10T11:34:59.027Z,74.1
2023-05-10T11:36:59.235Z,74.5
2023-05-10T11:38:58.963Z,74
2023-05-10T11:40:58.971Z,73.8
2023-05-10T11:42:58.955Z,74
2023-05-10T11:45:00.527Z,74.1
2023-05-10T11:46:59.087Z,75
2023-05-10T11:48:59.030Z,75.5
2023-05-10T11:50:58.924Z,75.1
2023-05-10T11:52:58.955Z,74.5
2023-05-10T11:54:59.065Z,74.5
2023-05-10T11:56:58.977Z,74.3
2023-05-10T11:58:58.977Z,74.8
2023-05-10T12:01:00.301Z,74.2
2023-05-10T12:02:59.218Z,74.3
2023-05-10T12:04:59.293Z,73.9
2023-05-10T12:06:58.975Z,73.5
2023-05-10T12:08:58.946Z,72.8
2023-05-10T12:10:59.017Z,72.4
2023-05-10T12:12:58.971Z,72.3
2023-05-10T12:14:59.163Z,72
2023-05-10T12:16:58.938Z,71.7
2023-05-10T12:18:58.981Z,71.3
2023-05-10T12:20:59.043Z,70.1
2023-05-10T12:23:00.285Z,70.4
2023-05-10T12:24:58.962Z,70.6
2023-05-10T12:28:04.738Z,69.4
2023-05-10T12:28:59.073Z,69.6
2023-05-10T12:30:58.908Z,70.4
2023-05-10T12:32:58.973Z,70.4
2023-05-10T12:35:00.241Z,66.9
2023-05-10T12:36:58.950Z,66.1
2023-05-10T12:39:00.062Z,66.5
2023-05-10T12:40:59.132Z,65.1
2023-05-10T12:43:00.411Z,65.3
2023-05-10T13:42:38.679Z,50.4
2023-05-10T13:43:25.841Z,52.1
2023-05-10T13:45:25.868Z,50.2
2023-05-10T13:47:28.549Z,49.5
2023-05-10T13:49:30.227Z,49.8
2023-05-10T13:51:27.079Z,49
2023-05-10T13:53:41.223Z,50.8
2023-05-10T13:55:27.479Z,50.8
2023-05-10T13:57:27.212Z,50.1
2023-05-10T13:59:30.355Z,49.1
2023-05-10T14:01:26.003Z,50.5
2023-05-10T14:03:25.938Z,49.9
2023-05-10T14:05:26.585Z,50.7
2023-05-10T14:07:25.880Z,48.3
2023-05-10T14:09:25.925Z,50.7
2023-05-10T14:11:25.791Z,50.2
2023-05-10T14:13:25.804Z,46.8
2023-05-10T14:15:25.809Z,48
2023-05-10T14:17:25.946Z,51.1
2023-05-10T14:19:26.001Z,51.3
2023-05-10T14:21:30.172Z,50.9
2023-05-10T14:23:27.029Z,47.7
2023-05-10T14:25:26.014Z,47.5
2023-05-10T14:27:25.918Z,47.1
2023-05-10T14:29:26.929Z,46.9
2023-05-10T14:31:33.643Z,45.6
2023-05-10T14:33:25.916Z,44.4
2023-05-10T14:35:26.080Z,45.8
2023-05-10T14:37:27.353Z,46
2023-05-10T14:39:25.917Z,45.2
2023-05-10T14:41:25.868Z,47.8
2023-05-10T14:43:25.736Z,45.1
2023-05-10T14:45:26.103Z,47.2
2023-05-10T14:47:25.828Z,47.7
2023-05-10T14:49:25.938Z,46
2023-05-10T14:51:26.801Z,47.8
2023-05-10T14:53:25.862Z,47.6
2023-05-10T14:55:27.262Z,47.6
2023-05-10T14:57:25.988Z,47
2023-05-10T14:59:27.063Z,44.1
2023-05-10T15:01:27.242Z,45.1
2023-05-10T15:03:25.843Z,44.3
2023-05-10T15:05:25.879Z,45.7
2023-05-10T15:07:25.968Z,46.3
2023-05-10T15:09:25.874Z,44
2023-05-10T15:11:25.716Z,43.1
2023-05-10T15:13:06.203Z,43.1
2023-05-10T15:15:25.826Z,45.2
2023-05-10T15:17:25.974Z,45.1
2023-05-10T15:19:25.715Z,43.1
2023-05-10T15:21:32.104Z,43.8
2023-05-10T15:23:28.371Z,43.6
2023-05-10T15:25:27.588Z,43.9
2023-05-10T15:27:25.895Z,42.8
2023-05-10T15:29:25.868Z,41.5
2023-05-10T15:31:27.088Z,40.6
2023-05-10T15:33:26.888Z,41.4
2023-05-10T15:35:25.734Z,39.7
2023-05-10T15:37:25.644Z,38.9
2023-05-10T15:39:30.074Z,40.2
2023-05-10T15:41:25.898Z,36.7
2023-05-10T15:43:25.768Z,38.8
2023-05-10T15:45:25.933Z,38.4
2023-05-10T15:47:26.900Z,37.1
2023-05-10T15:49:27.312Z,38.2
2023-05-10T15:51:32.113Z,36.4
2023-05-10T15:53:28.298Z,36.7
2023-05-10T15:55:26.968Z,37.8
2023-05-10T15:57:30.278Z,39
2023-05-10T15:59:25.822Z,36.9
2023-05-10T16:01:25.733Z,37.7
2023-05-10T16:03:25.867Z,37.2
2023-05-10T16:05:28.259Z,37.1
2023-05-10T16:07:25.713Z,36
2023-05-10T16:09:26.805Z,37.3
2023-05-10T16:11:36.151Z,38
2023-05-10T16:13:25.696Z,36.4
2023-05-10T16:15:25.808Z,36.5
2023-05-10T16:17:37.709Z,33.5
2023-05-10T16:19:29.094Z,34.8
2023-05-10T16:21:25.724Z,33.3
2023-05-10T16:23:25.801Z,36.6
2023-05-10T16:25:25.708Z,35.3
2023-05-10T16:27:25.680Z,34.4
2023-05-10T16:29:25.800Z,32.9
2023-05-10T16:31:25.778Z,34.5
2023-05-10T16:33:26.901Z,36.8
2023-05-10T16:35:25.763Z,39.5
2023-05-10T16:37:25.832Z,36.5
2023-05-10T16:39:25.824Z,35.7
2023-05-10T16:41:28.262Z,35.8
2023-05-10T16:43:26.248Z,37.7
2023-05-10T16:45:25.755Z,37.2
2023-05-10T16:47:25.925Z,36.6
2023-05-10T16:49:26.363Z,37.4
2023-05-10T16:51:25.765Z,34.4
2023-05-10T16:53:25.798Z,36.3
2023-05-10T16:55:28.260Z,37.3
2023-05-10T16:57:25.883Z,35.4
2023-05-10T16:59:36.010Z,35.6
2023-05-10T17:01:27.435Z,35.3
2023-05-10T17:03:25.791Z,35.2
2023-05-10T17:05:30.185Z,36.5
2023-05-10T17:35:20.829Z,32.4
2023-05-10T17:37:49.609Z,32.8
2023-05-10T17:39:49.753Z,34.9
2023-05-10T17:41:49.561Z,34.1
2023-05-10T17:43:57.899Z,33.9
2023-05-10T17:45:50.612Z,34.9
2023-05-10T17:47:50.920Z,33.8
2023-05-10T17:49:49.741Z,32.5
2023-05-10T17:51:49.637Z,34.2
2023-05-10T17:53:49.664Z,31
2023-05-10T17:55:49.700Z,32.9
2023-05-10T17:57:51.795Z,33.4
2023-05-10T17:59:49.658Z,33.5
2023-05-10T18:01:49.873Z,33.2
2023-05-10T18:03:52.180Z,33
2023-05-10T18:05:50.975Z,34.2
2023-05-10T18:07:51.705Z,33.6
2023-05-10T18:09:49.575Z,34.8
2023-05-10T18:11:55.634Z,32.5
2023-05-10T18:14:18.614Z,33.6
2023-05-10T18:15:50.711Z,32.2
2023-05-10T18:17:52.669Z,32.9
2023-05-10T18:34:25.711Z,34.2
2023-05-10T18:35:46.686Z,33.7
2023-05-10T18:37:46.622Z,33.1
2023-05-10T18:39:46.644Z,33.9
2023-05-10T18:41:46.799Z,33.6
2023-05-10T18:43:46.666Z,35.1
2023-05-10T18:45:46.635Z,35.2
2023-05-10T18:47:46.717Z,34.9
2023-05-10T18:49:46.683Z,36.5
2023-05-10T18:51:46.634Z,34.2
2023-05-10T18:53:46.708Z,33.6
2023-05-10T18:55:46.802Z,34.6
2023-05-10T18:57:46.700Z,34.8
2023-05-10T18:59:46.728Z,34.3
2023-05-10T19:01:49.547Z,33.7
2023-05-10T19:03:46.639Z,33.1
2023-05-10T19:05:47.900Z,34.1
2023-05-10T19:07:46.778Z,34
2023-05-10T19:09:46.641Z,34.4
2023-05-10T19:11:46.709Z,34.2
2023-05-10T19:13:48.265Z,34.2
2023-05-10T19:15:46.620Z,34.5
2023-05-10T19:17:46.752Z,32.5
2023-05-10T19:19:49.139Z,33.7
2023-05-10T19:21:46.626Z,34.4
2023-05-10T19:23:46.661Z,34.7
2023-05-10T19:25:46.570Z,35.6
2023-05-10T19:27:46.835Z,36
2023-05-10T19:29:46.655Z,36.1
2023-05-10T19:32:13.811Z,36.5
2023-05-10T19:33:46.958Z,36.1
2023-05-10T19:35:47.878Z,36.1
2023-05-10T19:37:46.807Z,37.7
2023-05-10T19:39:46.557Z,36.8
2023-05-10T19:41:46.610Z,35.9
2023-05-10T19:43:48.068Z,36.7
2023-05-10T19:45:46.644Z,35.5
2023-05-10T19:47:46.857Z,35.8
2023-05-10T19:49:49.166Z,37.3
2023-05-10T19:51:46.638Z,36.8
2023-05-10T19:53:46.606Z,38
2023-05-10T19:55:47.894Z,37
2023-05-10T19:57:47.958Z,37
2023-05-10T19:59:46.535Z,37.2
2023-05-10T20:01:46.586Z,36.9
2023-05-10T20:03:49.264Z,35.7
2023-05-10T20:05:46.757Z,37
2023-05-10T20:07:46.646Z,37.2
2023-05-10T20:09:47.181Z,37.2
2023-05-10T20:11:46.599Z,36.9
2023-05-10T20:13:46.648Z,36.5
2023-05-10T20:15:46.689Z,35.1
2023-05-10T20:17:46.765Z,37.1
2023-05-10T20:19:46.698Z,36.9
2023-05-10T20:21:46.811Z,37.7
2023-05-10T20:23:46.499Z,37.8
2023-05-10T20:25:46.575Z,36.7
2023-05-10T20:27:46.602Z,36.1
2023-05-10T20:29:47.809Z,36.4
2023-05-10T20:31:46.536Z,36.8
2023-05-10T20:33:49.145Z,36
2023-05-10T20:35:46.785Z,36.5
2023-05-10T20:37:46.602Z,36.9
2023-05-10T20:39:47.919Z,36.6
2023-05-10T20:41:46.604Z,35.6
2023-05-10T20:43:46.651Z,36.4
2023-05-10T20:45:46.511Z,37.1
2023-05-10T20:47:46.614Z,37
2023-05-10T20:49:46.572Z,36.1
2023-05-10T20:51:46.520Z,37.3
2023-05-10T20:53:46.519Z,36.9
2023-05-10T20:55:46.541Z,36.9
2023-05-10T20:57:46.525Z,37.3
2023-05-10T20:59:46.682Z,37.9
2023-05-10T21:01:47.212Z,38.4
2023-05-10T21:03:48.018Z,38.9
2023-05-10T21:05:46.722Z,39.2
2023-05-10T21:07:46.712Z,39
2023-05-10T21:09:46.495Z,39.3
2023-05-10T21:11:47.787Z,39
2023-05-10T21:13:46.660Z,38.6
2023-05-10T21:15:46.515Z,38.9
2023-05-10T21:17:48.190Z,38.7
2023-05-10T21:19:46.459Z,39.2
2023-05-10T21:21:46.559Z,39.8
2023-05-10T21:23:46.487Z,39.8
2023-05-10T21:25:46.563Z,40.2
2023-05-10T21:27:46.772Z,40.8
2023-05-10T21:29:46.457Z,40.1
2023-05-10T21:31:46.593Z,40.4
2023-05-10T21:33:46.458Z,40.3
2023-05-10T21:35:46.579Z,41.1
2023-05-10T21:37:49.215Z,41
2023-05-10T21:39:46.586Z,41.2
2023-05-10T21:41:46.545Z,41.5
2023-05-10T21:43:47.569Z,41.2
2023-05-10T21:45:46.498Z,41.8
2023-05-10T21:47:46.680Z,41.8
2023-05-10T21:49:49.061Z,42
2023-05-10T21:51:46.535Z,42.6
2023-05-10T21:53:46.558Z,42.5
2023-05-10T21:55:46.641Z,42.4
2023-05-10T21:57:46.484Z,42.6
2023-05-10T21:59:46.553Z,43.1
2023-05-10T22:01:49.299Z,43.3
2023-05-10T22:03:46.505Z,43.4
2023-05-10T22:05:46.554Z,43.6
2023-05-10T22:07:46.395Z,43.9
2023-05-10T22:09:46.550Z,44.1
2023-05-10T22:11:46.485Z,44.2
2023-05-10T22:13:46.415Z,44.1
2023-05-10T22:15:46.455Z,44.4
2023-05-10T22:17:46.502Z,44
2023-05-10T22:19:47.553Z,44.1
2023-05-10T22:21:46.475Z,44.2
2023-05-10T22:23:47.575Z,45.9
2023-05-10T22:25:46.414Z,45.9
2023-05-10T22:27:46.600Z,45.2
2023-05-10T22:29:46.706Z,44.7
2023-05-10T22:31:46.485Z,45.5
2023-05-10T22:33:46.416Z,45.1
2023-05-10T22:35:46.543Z,45.3
2023-05-10T22:37:46.593Z,44.8
2023-05-10T22:39:46.462Z,45.2
2023-05-10T22:41:46.387Z,45.6
2023-05-10T22:43:46.379Z,45.7
2023-05-10T22:45:50.676Z,45.1
2023-05-10T22:47:46.407Z,43.4
2023-05-10T22:49:47.532Z,42.5
2023-05-10T22:51:46.738Z,42.1
2023-05-10T22:53:47.771Z,42.2
2023-05-10T22:55:47.659Z,42.1
2023-05-10T22:57:46.353Z,41.7
2023-05-10T22:59:46.351Z,42.1
2023-05-10T23:01:46.479Z,42.2
2023-05-10T23:03:46.471Z,42.6
2023-05-10T23:05:46.424Z,42.9
2023-05-10T23:07:46.452Z,42.6
2023-05-10T23:09:46.388Z,43.2
2023-05-10T23:11:46.455Z,42.8
2023-05-10T23:13:46.531Z,43.5
2023-05-10T23:15:46.577Z,43.7
2023-05-10T23:17:51.109Z,44.4
2023-05-10T23:19:46.422Z,45.5
2023-05-10T23:21:46.363Z,46.1
2023-05-10T23:23:46.357Z,47.2
2023-05-10T23:25:46.367Z,47
2023-05-10T23:27:46.402Z,47.9
2023-05-10T23:29:46.313Z,49.8
2023-05-10T23:31:46.351Z,49.8
2023-05-10T23:33:47.702Z,49.7
2023-05-10T23:35:46.369Z,50.3
2023-05-10T23:37:46.328Z,50.8
2023-05-10T23:39:46.533Z,51.1
2023-05-10T23:41:46.413Z,52.4
2023-05-10T23:43:46.281Z,51.9
2023-05-10T23:45:46.425Z,53.1
2023-05-10T23:47:46.350Z,53.1
2023-05-10T23:49:46.519Z,52.6
2023-05-10T23:51:46.311Z,55.7
2023-05-10T23:53:46.478Z,56.2
2023-05-10T23:55:46.475Z,55.7
2023-05-10T23:57:46.766Z,55
2023-05-10T23:59:46.421Z,55.7
